createdAt,value
2019-03-08T00:01:37.761Z,0.80
2019-03-08T00:04:04.183Z,0.90
2019-03-08T00:06:30.339Z,0.80
2019-03-08T00:08:56.578Z,0.72
2019-03-08T00:11:22.889Z,1.10
2019-03-08T00:13:49.087Z,0.98
2019-03-08T00:16:15.237Z,0.80
2019-03-08T00:18:41.567Z,0.80
2019-03-08T00:21:07.726Z,0.90
2019-03-08T00:23:35.294Z,0.95
2019-03-08T00:26:01.554Z,0.80
2019-03-08T00:28:27.664Z,1.10
2019-03-08T00:30:53.901Z,1.00
2019-03-08T00:33:20.168Z,0.72
2019-03-08T00:35:46.370Z,1.00
2019-03-08T00:38:12.513Z,0.80
2019-03-08T00:40:38.815Z,0.90
2019-03-08T00:43:04.962Z,0.88
2019-03-08T00:45:31.352Z,0.62
2019-03-08T00:47:57.602Z,0.80
2019-03-08T00:50:24.880Z,0.53
2019-03-08T00:52:51.022Z,0.98
2019-03-08T00:55:17.191Z,0.85
2019-03-08T00:57:43.386Z,0.80
2019-03-08T01:00:18.615Z,0.68
2019-03-08T01:02:44.887Z,0.88
2019-03-08T01:05:12.041Z,0.80
2019-03-08T01:07:38.419Z,0.70
2019-03-08T01:10:14.496Z,0.98
2019-03-08T01:12:40.955Z,0.82
2019-03-08T01:15:10.432Z,0.88
2019-03-08T01:17:37.175Z,0.70
2019-03-08T01:20:06.007Z,0.70
2019-03-08T01:22:32.117Z,0.60
2019-03-08T01:24:59.311Z,0.88
2019-03-08T01:27:25.602Z,0.70
2019-03-08T01:29:52.161Z,0.80
2019-03-08T01:32:18.438Z,0.70
2019-03-08T01:34:44.706Z,0.80
2019-03-08T01:37:10.942Z,0.80
2019-03-08T01:39:37.072Z,1.22
2019-03-08T01:42:03.575Z,1.00
2019-03-08T01:44:29.694Z,0.60
2019-03-08T01:46:56.213Z,0.82
2019-03-08T01:49:22.360Z,1.07
2019-03-08T01:51:48.630Z,0.80
2019-03-08T01:54:14.846Z,0.90
2019-03-08T01:56:42.856Z,0.90
2019-03-08T01:59:09.184Z,0.70
2019-03-08T02:01:35.425Z,0.85
2019-03-08T02:04:01.695Z,0.85
2019-03-08T02:06:27.917Z,1.00
2019-03-08T02:08:54.031Z,0.72
2019-03-08T02:11:20.274Z,0.75
2019-03-08T02:13:46.473Z,0.78
2019-03-08T02:16:12.778Z,0.85
2019-03-08T02:18:38.930Z,0.80
2019-03-08T02:21:07.118Z,0.88
2019-03-08T02:23:33.350Z,0.75
2019-03-08T02:25:59.583Z,0.93
2019-03-08T02:28:25.915Z,0.72
2019-03-08T02:30:52.094Z,0.62
2019-03-08T02:33:18.294Z,0.70
2019-03-08T02:35:44.399Z,0.80
2019-03-08T02:38:10.717Z,0.85
2019-03-08T02:40:38.041Z,0.95
2019-03-08T02:43:09.133Z,0.80
2019-03-08T02:48:01.426Z,0.70
2019-03-08T02:50:27.735Z,0.80
2019-03-08T02:52:54.079Z,0.60
2019-03-08T02:55:20.266Z,0.80
2019-03-08T02:57:46.803Z,0.72
2019-03-08T03:00:14.559Z,1.00
2019-03-08T03:02:40.946Z,0.90
2019-03-08T03:05:07.376Z,0.80
2019-03-08T03:07:33.575Z,0.68
2019-03-08T03:09:59.770Z,0.70
2019-03-08T03:12:25.967Z,0.78
2019-03-08T03:14:52.363Z,0.65
2019-03-08T03:17:18.461Z,0.45
2019-03-08T03:19:44.794Z,0.70
2019-03-08T03:22:10.910Z,0.80
2019-03-08T03:24:37.112Z,0.70
2019-03-08T03:27:03.309Z,0.95
2019-03-08T03:29:29.876Z,0.62
2019-03-08T03:31:55.959Z,0.50
2019-03-08T03:34:22.378Z,0.60
2019-03-08T03:36:48.476Z,0.62
2019-03-08T03:39:14.704Z,0.80
2019-03-08T03:41:40.815Z,0.62
2019-03-08T03:44:07.228Z,0.70
2019-03-08T03:46:33.410Z,0.80
2019-03-08T03:48:59.687Z,0.80
2019-03-08T03:51:26.487Z,0.42
2019-03-08T03:53:52.575Z,0.70
2019-03-08T03:56:18.811Z,0.70
2019-03-08T03:58:45.032Z,0.60
2019-03-08T04:01:22.011Z,0.60
2019-03-08T04:03:48.233Z,0.60
2019-03-08T04:06:14.321Z,0.57
2019-03-08T04:08:40.624Z,0.85
2019-03-08T04:11:06.731Z,0.60
2019-03-08T04:13:32.961Z,0.60
2019-03-08T04:15:59.094Z,0.70
2019-03-08T04:18:25.303Z,0.70
2019-03-08T04:20:51.496Z,0.60
2019-03-08T04:23:17.707Z,0.45
2019-03-08T04:25:44.062Z,0.57
2019-03-08T04:28:10.230Z,0.53
2019-03-08T04:30:36.465Z,0.60
2019-03-08T04:33:02.944Z,0.90
2019-03-08T04:35:29.032Z,0.60
2019-03-08T04:37:55.281Z,0.75
2019-03-08T04:40:21.386Z,0.60
2019-03-08T04:42:47.676Z,0.50
2019-03-08T04:45:14.440Z,0.70
2019-03-08T04:47:40.885Z,0.68
2019-03-08T04:50:10.405Z,0.80
2019-03-08T04:52:36.731Z,0.62
2019-03-08T04:55:09.173Z,0.70
2019-03-08T04:57:35.405Z,0.70
2019-03-08T05:00:03.300Z,0.80
2019-03-08T05:02:29.657Z,0.78
2019-03-08T05:04:55.808Z,0.70
2019-03-08T05:07:21.971Z,0.85
2019-03-08T05:09:48.140Z,0.53
2019-03-08T05:12:14.319Z,0.72
2019-03-08T05:14:40.560Z,0.80
2019-03-08T05:17:06.796Z,0.80
2019-03-08T05:19:33.176Z,0.82
2019-03-08T05:21:59.432Z,0.80
2019-03-08T05:24:25.683Z,0.88
2019-03-08T05:26:52.876Z,1.07
2019-03-08T05:29:19.041Z,0.72
2019-03-08T05:31:45.249Z,0.50
2019-03-08T05:34:11.344Z,7.15
2019-03-08T05:36:37.758Z,0.70
2019-03-08T05:39:06.993Z,0.68
2019-03-08T05:41:33.310Z,0.98
2019-03-08T05:43:59.457Z,0.70
2019-03-08T05:46:25.693Z,0.50
2019-03-08T05:48:51.909Z,0.90
2019-03-08T05:51:18.242Z,1.00
2019-03-08T05:53:44.526Z,0.68
2019-03-08T05:56:10.808Z,1.02
2019-03-08T05:58:37.074Z,0.70
2019-03-08T06:01:03.440Z,0.70
2019-03-08T06:03:29.679Z,0.75
2019-03-08T06:05:56.087Z,1.10
2019-03-08T06:08:22.407Z,0.78
2019-03-08T06:10:48.621Z,0.70
2019-03-08T06:13:14.744Z,0.70
2019-03-08T06:15:40.969Z,0.65
2019-03-08T06:18:07.097Z,0.70
2019-03-08T06:20:33.329Z,0.65
2019-03-08T06:22:59.658Z,0.72
2019-03-08T06:25:26.164Z,0.72
2019-03-08T06:27:52.356Z,0.98
2019-03-08T06:30:18.842Z,0.60
2019-03-08T06:32:46.077Z,0.57
2019-03-08T06:35:12.217Z,0.50
2019-03-08T06:37:38.426Z,0.65
2019-03-08T06:40:08.925Z,0.60
2019-03-08T06:42:35.242Z,0.60
2019-03-08T06:45:01.471Z,0.50
2019-03-08T06:47:27.576Z,0.65
2019-03-08T06:49:53.960Z,0.80
2019-03-08T06:52:20.282Z,0.70
2019-03-08T06:54:46.498Z,0.60
2019-03-08T06:57:12.885Z,0.70
2019-03-08T06:59:41.083Z,0.72
2019-03-08T07:02:07.287Z,0.75
2019-03-08T07:04:33.483Z,0.70
2019-03-08T07:06:59.768Z,0.65
2019-03-08T07:09:26.022Z,0.60
2019-03-08T07:11:52.313Z,0.60
2019-03-08T07:14:18.532Z,1.47
2019-03-08T07:16:44.674Z,0.60
2019-03-08T07:19:10.895Z,0.70
2019-03-08T07:21:38.902Z,1.00
2019-03-08T07:24:07.038Z,0.60
2019-03-08T07:26:35.068Z,0.90
2019-03-08T07:29:09.408Z,0.80
2019-03-08T07:31:37.474Z,0.70
2019-03-08T07:34:11.934Z,0.53
2019-03-08T07:36:56.898Z,0.72
2019-03-08T07:39:34.130Z,0.70
2019-03-08T07:42:18.662Z,0.85
2019-03-08T07:45:03.514Z,1.00
2019-03-08T07:47:37.357Z,1.10
2019-03-08T07:50:26.172Z,0.85
2019-03-08T07:52:54.304Z,0.72
2019-03-08T07:55:22.461Z,0.72
2019-03-08T07:57:53.248Z,0.80
2019-03-08T08:00:21.403Z,0.70
2019-03-08T08:02:52.514Z,0.75
2019-03-08T08:05:23.561Z,0.80
2019-03-08T08:07:55.149Z,0.70
2019-03-08T08:10:41.599Z,0.68
2019-03-08T08:13:18.967Z,0.82
2019-03-08T08:15:47.147Z,0.88
2019-03-08T08:18:17.816Z,0.80
2019-03-08T08:20:51.938Z,0.80
2019-03-08T08:23:23.156Z,0.75
2019-03-08T08:28:22.360Z,0.70
2019-03-08T08:31:05.540Z,0.70
2019-03-08T08:33:33.559Z,0.80
2019-03-08T08:36:01.673Z,0.80
2019-03-08T08:38:43.085Z,0.60
2019-03-08T08:41:23.259Z,0.93
2019-03-08T08:43:54.209Z,0.60
2019-03-08T08:46:39.150Z,0.88
2019-03-08T08:49:07.176Z,0.90
2019-03-08T08:51:44.589Z,0.80
2019-03-08T08:54:12.664Z,0.60
2019-03-08T08:56:46.549Z,1.12
2019-03-08T08:59:17.633Z,0.75
2019-03-08T09:02:00.894Z,0.90
2019-03-08T09:04:46.093Z,0.70
2019-03-08T09:07:34.056Z,0.60
2019-03-08T09:10:06.371Z,1.27
2019-03-08T09:12:34.549Z,0.72
2019-03-08T09:15:11.842Z,1.07
2019-03-08T09:17:56.819Z,1.00
2019-03-08T09:20:41.867Z,0.60
2019-03-08T09:23:26.594Z,1.27
2019-03-08T09:26:11.570Z,0.93
2019-03-08T09:28:39.698Z,1.17
2019-03-08T09:31:07.932Z,1.00
2019-03-08T09:33:54.096Z,0.80
2019-03-08T09:36:36.806Z,0.98
2019-03-08T09:39:12.748Z,0.80
2019-03-08T09:41:40.742Z,0.70
2019-03-08T09:44:27.064Z,1.00
2019-03-08T09:46:58.141Z,0.70
2019-03-08T09:52:16.332Z,0.90
2019-03-08T09:54:44.441Z,1.20
2019-03-08T09:57:30.587Z,0.90
2019-03-08T10:00:15.499Z,0.90
2019-03-08T10:02:46.336Z,0.80
2019-03-08T10:05:17.071Z,1.02
2019-03-08T10:07:45.463Z,0.72
2019-03-08T10:10:16.213Z,1.10
2019-03-08T10:12:47.115Z,0.75
2019-03-08T10:15:33.547Z,0.95
2019-03-08T10:18:18.503Z,0.85
2019-03-08T10:20:52.627Z,1.12
2019-03-08T10:23:26.710Z,1.22
2019-03-08T10:25:54.883Z,0.80
2019-03-08T10:28:23.264Z,1.07
2019-03-08T10:31:09.538Z,1.10
2019-03-08T10:33:46.208Z,1.15
2019-03-08T10:36:22.891Z,1.00
2019-03-08T10:39:03.186Z,1.17
2019-03-08T10:41:39.378Z,1.20
2019-03-08T10:44:12.312Z,1.47
2019-03-08T10:46:49.510Z,1.30
2019-03-08T10:49:17.591Z,0.98
2019-03-08T10:51:48.572Z,1.05
2019-03-08T10:54:19.169Z,1.05
2019-03-08T10:57:03.979Z,1.10
2019-03-08T10:59:44.204Z,0.70
2019-03-08T11:02:15.250Z,0.87
2019-03-08T11:04:50.274Z,1.20
2019-03-08T11:07:21.330Z,0.90
2019-03-08T11:09:49.343Z,1.00
2019-03-08T11:12:23.518Z,0.90
2019-03-08T11:15:00.511Z,1.05
2019-03-08T11:17:34.907Z,1.00
2019-03-08T11:20:15.083Z,1.00
2019-03-08T11:23:01.136Z,0.97
2019-03-08T11:25:38.273Z,1.25
2019-03-08T11:28:21.113Z,0.90
2019-03-08T11:31:04.586Z,1.05
2019-03-08T11:33:45.217Z,1.05
2019-03-08T11:36:13.426Z,1.60
2019-03-08T11:38:44.310Z,1.10
2019-03-08T11:41:18.351Z,1.30
2019-03-08T11:43:46.814Z,1.12
2019-03-08T11:46:17.614Z,1.12
2019-03-08T11:49:04.075Z,1.00
2019-03-08T11:51:47.204Z,0.98
2019-03-08T11:54:18.190Z,1.00
2019-03-08T11:56:46.202Z,0.88
2019-03-08T11:59:14.351Z,1.25
2019-03-08T12:01:42.375Z,1.40
2019-03-08T12:04:27.363Z,1.10
2019-03-08T12:06:55.386Z,1.40
2019-03-08T12:09:32.332Z,1.30
2019-03-08T12:12:00.346Z,1.15
2019-03-08T12:14:31.259Z,1.02
2019-03-08T12:17:02.186Z,1.10
2019-03-08T12:19:42.596Z,1.45
2019-03-08T12:22:29.067Z,1.00
2019-03-08T12:25:01.378Z,1.02
2019-03-08T12:27:38.687Z,0.72
2019-03-08T12:30:19.275Z,0.95
2019-03-08T12:33:04.009Z,1.20
2019-03-08T12:35:35.084Z,0.90
2019-03-08T12:40:33.887Z,0.93
2019-03-08T12:43:08.077Z,0.90
2019-03-08T12:45:47.226Z,0.82
2019-03-08T12:48:31.946Z,0.90
2019-03-08T12:51:06.329Z,0.75
2019-03-08T12:53:43.722Z,0.78
2019-03-08T12:56:11.867Z,0.80
2019-03-08T12:58:45.403Z,0.85
2019-03-08T13:01:16.351Z,1.70
2019-03-08T13:04:00.991Z,0.95
2019-03-08T13:06:31.876Z,1.60
2019-03-08T13:09:06.119Z,0.90
2019-03-08T13:11:33.710Z,1.45
2019-03-08T13:13:59.857Z,1.60
2019-03-08T13:16:26.082Z,2.35
2019-03-08T13:18:52.290Z,1.22
2019-03-08T13:21:18.472Z,1.45
2019-03-08T13:23:45.827Z,1.15
2019-03-08T13:26:12.100Z,1.20
2019-03-08T13:28:38.310Z,1.30
2019-03-08T13:31:04.527Z,1.30
2019-03-08T13:33:30.747Z,1.80
2019-03-08T13:35:56.895Z,1.70
2019-03-08T13:38:23.079Z,2.02
2019-03-08T13:40:49.257Z,1.52
2019-03-08T13:43:15.486Z,1.32
2019-03-08T13:45:41.579Z,1.70
2019-03-08T13:48:08.195Z,1.40
2019-03-08T13:50:34.352Z,1.30
2019-03-08T13:53:00.571Z,1.30
2019-03-08T13:55:26.718Z,1.65
2019-03-08T13:57:52.886Z,1.80
2019-03-08T14:00:19.444Z,1.87
2019-03-08T14:02:45.666Z,1.80
2019-03-08T14:05:12.813Z,1.70
2019-03-08T14:07:39.010Z,1.50
2019-03-08T14:10:11.835Z,1.90
2019-03-08T14:12:37.959Z,1.27
2019-03-08T14:15:07.114Z,1.10
2019-03-08T14:17:33.297Z,1.30
2019-03-08T14:19:59.441Z,1.30
2019-03-08T14:22:25.910Z,1.27
2019-03-08T14:24:52.084Z,1.20
2019-03-08T14:27:18.736Z,1.92
2019-03-08T14:29:45.586Z,1.25
2019-03-08T14:32:14.056Z,1.70
2019-03-08T14:37:09.387Z,1.20
2019-03-08T14:39:40.431Z,0.90
2019-03-08T14:42:16.570Z,1.30
2019-03-08T14:44:45.841Z,1.17
2019-03-08T14:47:14.210Z,1.00
2019-03-08T14:49:40.811Z,1.10
2019-03-08T14:52:07.570Z,1.10
2019-03-08T14:54:34.684Z,0.80
2019-03-08T14:57:01.263Z,1.00
2019-03-08T14:59:30.639Z,1.02
2019-03-08T15:01:56.746Z,0.95
2019-03-08T15:04:23.652Z,0.80
2019-03-08T15:06:50.149Z,0.90
2019-03-08T15:09:16.384Z,1.17
2019-03-08T15:11:42.609Z,0.95
2019-03-08T15:14:08.826Z,1.17
2019-03-08T15:16:35.389Z,1.10
2019-03-08T15:19:04.025Z,1.35
2019-03-08T15:21:33.321Z,2.85
2019-03-08T15:23:59.088Z,1.27
2019-03-08T15:26:25.195Z,1.55
2019-03-08T15:28:51.311Z,4.85
2019-03-08T15:31:18.505Z,1.47
2019-03-08T15:33:45.017Z,1.27
2019-03-08T15:36:11.542Z,1.27
2019-03-08T15:38:38.645Z,1.42
2019-03-08T15:41:04.938Z,1.50
2019-03-08T15:43:31.634Z,1.35
2019-03-08T15:45:58.375Z,1.30
2019-03-08T15:48:28.552Z,1.40
2019-03-08T15:50:59.594Z,1.72
2019-03-08T15:53:27.018Z,1.40
2019-03-08T15:56:02.351Z,1.55
2019-03-08T15:58:32.333Z,1.40
2019-03-08T16:01:18.545Z,1.03
2019-03-08T16:03:46.789Z,1.72
2019-03-08T16:06:16.060Z,1.52
2019-03-08T16:08:43.072Z,1.77
2019-03-08T16:11:10.030Z,1.60
2019-03-08T16:13:36.906Z,1.60
2019-03-08T16:16:03.409Z,1.25
2019-03-08T16:18:29.792Z,1.47
2019-03-08T16:20:56.061Z,1.32
2019-03-08T16:23:22.247Z,1.42
2019-03-08T16:25:48.862Z,1.75
2019-03-08T16:28:15.932Z,1.20
2019-03-08T16:31:04.258Z,1.40
2019-03-08T16:33:39.070Z,1.37
2019-03-08T16:36:16.812Z,1.50
2019-03-08T16:38:45.761Z,1.55
2019-03-08T16:41:31.221Z,1.62
2019-03-08T16:44:05.788Z,1.27
2019-03-08T16:46:52.327Z,1.40
2019-03-08T16:49:33.724Z,1.30
2019-03-08T16:52:16.240Z,1.27
2019-03-08T16:54:47.729Z,1.60
2019-03-08T16:57:16.442Z,2.20
2019-03-08T16:59:55.400Z,1.42
2019-03-08T17:02:23.706Z,1.80
2019-03-08T17:04:58.212Z,2.00
2019-03-08T17:07:26.377Z,1.85
2019-03-08T17:09:58.059Z,1.60
2019-03-08T17:12:38.125Z,1.75
2019-03-08T17:15:20.938Z,2.15
2019-03-08T17:17:58.040Z,1.95
2019-03-08T17:20:26.021Z,1.80
2019-03-08T17:23:11.271Z,3.47
2019-03-08T17:25:55.743Z,7.60
2019-03-08T17:28:29.075Z,2.02
2019-03-08T17:30:58.388Z,1.80
2019-03-08T17:33:33.216Z,1.90
2019-03-08T17:36:02.633Z,2.10
2019-03-08T17:38:38.817Z,1.98
2019-03-08T17:41:10.099Z,1.62
2019-03-08T17:43:40.568Z,1.80
2019-03-08T17:46:17.430Z,2.12
2019-03-08T17:49:03.859Z,2.45
2019-03-08T17:51:44.492Z,1.98
2019-03-08T17:54:15.401Z,2.33
2019-03-08T17:56:52.958Z,2.30
2019-03-08T17:59:32.877Z,2.02
2019-03-08T18:02:01.088Z,2.30
2019-03-08T18:04:44.249Z,2.55
2019-03-08T18:07:12.340Z,2.20
2019-03-08T18:09:58.996Z,2.08
2019-03-08T18:12:43.701Z,2.50
2019-03-08T18:15:18.188Z,2.75
2019-03-08T18:18:02.519Z,2.52
2019-03-08T18:20:33.084Z,2.40
2019-03-08T18:23:18.475Z,1.77
2019-03-08T18:25:48.273Z,2.70
2019-03-08T18:31:50.773Z,2.55
2019-03-08T18:34:19.994Z,2.72
2019-03-08T18:39:36.519Z,2.50
2019-03-08T18:42:23.205Z,2.35
2019-03-08T18:44:54.485Z,2.67
2019-03-08T18:47:28.600Z,2.62
2019-03-08T18:50:02.833Z,3.10
2019-03-08T18:52:47.952Z,2.52
2019-03-08T18:55:15.950Z,2.58
2019-03-08T18:58:00.666Z,2.87
2019-03-08T19:00:43.953Z,2.55
2019-03-08T19:03:22.452Z,2.50
2019-03-08T19:05:56.398Z,2.87
2019-03-08T19:08:44.442Z,2.42
2019-03-08T19:11:12.473Z,2.83
2019-03-08T19:13:40.514Z,2.62
2019-03-08T19:16:17.336Z,2.83
2019-03-08T19:18:54.479Z,2.92
2019-03-08T19:21:42.586Z,2.95
2019-03-08T19:24:24.329Z,3.85
2019-03-08T19:27:09.320Z,3.27
2019-03-08T19:29:50.661Z,2.50
2019-03-08T19:32:45.583Z,2.98
2019-03-08T19:35:13.663Z,3.47
2019-03-08T19:37:51.099Z,3.87
2019-03-08T19:40:19.422Z,3.00
2019-03-08T19:43:04.367Z,3.65
2019-03-08T19:45:32.654Z,2.87
2019-03-08T19:48:09.856Z,2.70
2019-03-08T19:50:50.279Z,4.67
2019-03-08T19:53:37.086Z,3.52
2019-03-08T19:56:12.860Z,2.70
2019-03-08T19:58:50.699Z,3.65
2019-03-08T20:01:24.867Z,4.10
2019-03-08T20:04:09.904Z,3.80
2019-03-08T20:06:43.699Z,3.87
2019-03-08T20:09:13.638Z,4.83
2019-03-08T20:12:00.284Z,3.12
2019-03-08T20:14:40.547Z,3.92
2019-03-08T20:17:12.562Z,2.80
2019-03-08T20:19:41.656Z,5.12
2019-03-08T20:22:12.468Z,4.58
2019-03-08T20:24:57.196Z,4.08
2019-03-08T20:27:44.601Z,4.35
2019-03-08T20:30:13.071Z,4.20
2019-03-08T20:32:44.648Z,4.45
2019-03-08T20:35:12.790Z,3.27
2019-03-08T20:37:47.246Z,4.25
2019-03-08T20:40:32.295Z,4.10
2019-03-08T20:43:04.214Z,8.28
2019-03-08T20:45:32.593Z,5.35
2019-03-08T20:48:01.091Z,3.98
2019-03-08T20:50:27.377Z,4.15
2019-03-08T20:52:56.588Z,3.35
2019-03-08T20:55:22.859Z,3.95
2019-03-08T20:57:49.277Z,4.40
2019-03-08T21:00:16.066Z,4.10
2019-03-08T21:02:42.443Z,3.62
2019-03-08T21:05:08.678Z,4.40
2019-03-08T21:07:37.293Z,3.90
2019-03-08T21:10:10.613Z,4.28
2019-03-08T21:12:37.355Z,3.70
2019-03-08T21:15:12.198Z,3.83
2019-03-08T21:17:39.557Z,3.40
2019-03-08T21:20:10.671Z,3.80
2019-03-08T21:22:36.849Z,3.75
2019-03-08T21:25:08.512Z,3.58
2019-03-08T21:27:35.450Z,4.22
2019-03-08T21:30:03.160Z,3.80
2019-03-08T21:32:31.058Z,4.05
2019-03-08T21:34:57.297Z,4.37
2019-03-08T21:37:24.381Z,4.20
2019-03-08T21:39:50.734Z,4.37
2019-03-08T21:42:17.171Z,4.20
2019-03-08T21:44:43.338Z,5.20
2019-03-08T21:47:10.326Z,4.70
2019-03-08T21:49:36.941Z,5.03
2019-03-08T21:52:04.886Z,4.47
2019-03-08T21:54:31.020Z,4.60
2019-03-08T21:56:57.824Z,5.03
2019-03-08T21:59:23.946Z,5.45
2019-03-08T22:01:50.769Z,5.20
2019-03-08T22:04:18.942Z,5.35
2019-03-08T22:06:45.064Z,4.60
2019-03-08T22:09:32.007Z,4.80
2019-03-08T22:11:58.799Z,4.50
2019-03-08T22:14:24.995Z,5.25
2019-03-08T22:16:51.310Z,4.62
2019-03-08T22:19:17.872Z,5.12
2019-03-08T22:21:43.939Z,4.60
2019-03-08T22:24:13.736Z,4.50
2019-03-08T22:26:38.679Z,4.50
2019-03-08T22:29:06.153Z,4.20
2019-03-08T22:31:32.920Z,4.17
2019-03-08T22:34:01.897Z,3.65
2019-03-08T22:36:27.802Z,3.60
2019-03-08T22:38:54.404Z,3.40
2019-03-08T22:41:20.936Z,3.52
2019-03-08T22:43:47.123Z,3.27
2019-03-08T22:46:13.281Z,3.30
2019-03-08T22:48:39.388Z,3.75
2019-03-08T22:51:05.815Z,3.60
2019-03-08T22:53:31.962Z,3.67
2019-03-08T22:55:59.497Z,3.42
2019-03-08T22:58:25.715Z,3.33
2019-03-08T23:00:59.520Z,3.30
2019-03-08T23:03:30.147Z,3.70
2019-03-08T23:05:56.467Z,3.33
2019-03-08T23:08:22.585Z,3.90
2019-03-08T23:10:51.525Z,4.05
2019-03-08T23:13:18.135Z,4.28
2019-03-08T23:15:44.472Z,3.70
2019-03-08T23:18:10.650Z,4.03
2019-03-08T23:20:37.728Z,3.83
2019-03-08T23:23:06.063Z,4.05
2019-03-08T23:25:32.142Z,3.72
2019-03-08T23:28:18.042Z,4.33
2019-03-08T23:30:45.021Z,3.72
2019-03-08T23:33:11.822Z,3.80
2019-03-08T23:35:38.104Z,3.37
2019-03-08T23:38:06.487Z,3.75
2019-03-08T23:40:32.718Z,3.60
2019-03-08T23:42:58.838Z,3.92
2019-03-08T23:45:25.080Z,3.70
2019-03-08T23:47:52.059Z,3.70
2019-03-08T23:50:18.305Z,3.40
2019-03-08T23:52:44.468Z,3.75
2019-03-08T23:55:11.569Z,3.62
2019-03-08T23:57:38.716Z,3.27
